Arapahoe, NE (68922)

9:04 AM CDT on August 04, 2015 (GMT -0500)
Arapahoe Municipal Airport | | Change Station
CLOSE
Current Station
Personal Weather Station
Location: Arapahoe, NE
Elevation: 2257 ft
Nearby Weather Stations

Elev 2257 ft 40.34 °N, 99.90 °W | Updated 25 seconds ago

Overcast
Overcast
71.4 °F
Feels Like 71.4 °F
N
10.9
Wind Variable Wind from ESE

Today
High -- | Low -- °F
--% Chance of Precip.
Yesterday
High -- | Low -- °F
Precip. -- in
6:39 AM 8:50 PM
Waning Gibbous, 77% visible
Pressure 30.00 in
Visibility 0.2 miles
Clouds Overcast 100 ft
Dew Point 71 °F
Humidity 99%
Rainfall 0.00 in
Snow Depth Not available.
UV 1 out of 12
Pollen 7.90 out of 12
Air Quality Not available.
Flu Activity Not available.
METAR KHDE 041355Z AUTO 07011KT 1/4SM -RA OVC001 20/19 A3000 RMK AO2 T01990192

More Conditions Fewer Conditions

Pressure 30.00 in
Visibility 0.2 miles
Clouds Overcast 100 ft
Dew Point 71 °F
Humidity 99%
Rainfall 0.00 in
Snow Depth Not available.
UV 1 out of 12
Pollen 7.90 out of 12
Air Quality Not available.
Flu Activity Not available.
METAR KHDE 041355Z AUTO 07011KT 1/4SM -RA OVC001 20/19 A3000 RMK AO2 T01990192

More Conditions Fewer Conditions

10-Day Weather Forecast

×

Almanac

Astronomy

Aug. 04, 2015 Rise Set
Actual Time
Civil Twilight
Nautical Twilight
Astronomical Twilight
Moon
Length of Visible Light
Length of Day
Tomorrow will be .
, % of the Moon is Illuminated

Today's Extremes

State Highs State Lows

Community

WunderPhotos

Upload Photos

1,843,912 photos uploaded!

WunderBlogs® & News

Nearby

Air Quality

  Air Quality AQ Index Pollutant
Not available.

Snow Depth

Station Depth Elevation

Earthquake Activity

City Distance Mag. Time & Date
Minimum magnitude displayed is 2.5.

Coastal Water Temperatures

Place Temperature

Stations

Nearby Weather Stations

Station Location Temp. Windchill Dew Point Humidity Wind Precip. Elev Updated Type